Timeline UpdatesTrip UpdatesNews PostsPvt PostsTravel TipsAdmin PostsConv PostsFollowed PostsChat RequestsBlog PostsPNR Posts

Disclaimer
Search
 
 
Tue Sep 23, 2014 15:51:29 ISTHomeTrainsΣChainsAtlasPNRForumGalleryNewsFAQTripsMembersLoginFeedback
No Recent News for this Train
Other Trains in the News **new
Latest...
.
Mon Sep 08, 2014 (11:27PM)
⇐ Return Journey: Train# 17480

17479/Puri-Tirupati Express

Time-Table HAS CHANGED.
Sep 08 (11:27PM)
Change Departure Station:
Change Arrival Station:
Post a Train Travel TipPost a Train Travel Tip **new
Post a Comment/Question/Picture/VideoPost a Comment/Question/Picture/Video
Inaugural Run
Wed Jan 01, 1992
Pantry/Catering
✕ NO Pantry Car
✕ NO Catering
Loco/Rake Reversals
KUR/Khurda Road Junction (7); VSKP/Visakhapatnam Junction (8);
RSA - Rake Sharing
Rake/Coach Composition
Entry# 194081 Author: νιηαy దత్త 1:; SLRD(For Disabled + Ladies Only) - UR - UR - S1 - S2 - S3 - S4 - S5 - B1 - UR - UR - UR - SLR(Ladies Only)
Loco
Official Loco:- PURI/KUR - VSKP:- WAM-4 VSKP - RJY:- WAM-4/WAP-1 RJY - BZA:-...
Read more...
WDM-2A/WDM-3A BZA - TPTY:- WAM-4/WAP-1
News    PNR    Forum    Time-Table    Availability    Fare Chart    Map    Arr/Dep History    Trips    Gallery    ΣChains    X/O    Timeline    
Travel Time: 2h 35m    7 halts    Distance: 115 km    Avg Speed: 44 km/hr
Type: Mail/Express
Zone: SCR/South Central
Departs @ 12:25 (Avg 2m late)
Platform# 9
SM WTF 
Puri/PURI 
Arrives @ 15:00 (Avg 18m late)
Platform# ???
SM WTF 
Balugaon/BALU 

7 halts. 22 intermediate Stations between Puri and Balugaon

Show ALL intermediate Stations  Show Old Time-Table

#CodeStation NameX/OArrivesAvgDepartsAvgHaltPFDay#KmSpeedElevZoneAddress
1PURIPuri (5)»  -12:25+2910.04912mECoRPuri, Odisha
2SILSakhi Gopal (3)  12:45+1212:46+121m--116.44210mECoRPuri, Odisha
3KURKhurda Road Junction (7)X13:25+713:50+1325m--143.97925mECoRKhordha, Odisha
4NKPNirakarpurX  14:11 14:10+1714:12+181 2m--170.37121mECoRNirakarpur, Odisha
5BSDPBhusandpurX  14:20 14:18+1614:21 14:20+171 2m--177.47420mECoRBhushandapur, Odisha
6KAPGKalupara Ghat  14:30 14:28+1814:31 14:30+191 2m--187.36710mECoRChandeswar, Odisha
7KUUKuhuri  14:38 14:36+1814:39 14:38+181 2m--194.06826mECoRKhordha, Odisha
8GNGDGangadharpur  14:47 14:45+1814:48 14:47+211 2m--1102.06022mECoRKhordha, Odisha
9BALUBalugaon (3)•X  15:01 15:00+1815:02+191 2m--1115.04811mECoR752030, Odisha
10CLKAChilka  15:09 15:11+2115:10 15:13+211 2m--1122.27525mECoRBarkul, Odisha
11KITKhallikot (3)X  15:18 15:21+2215:19 15:23+231 2m--1132.27513mECoRKhallikot, Odisha
12RBARambha  15:29 15:32+2415:30 15:34+251 2m--1143.48614mECoRGanjam District, Odisha
13GAMGanjamX  15:43 15:46+2615:44 15:48+301 2m--1160.7678mECoRGanjam, Odisha
14CAPChatrapur  15:54 15:56+2715:55 15:58+301 2m--1169.65836mECoRChatrapur, Odisha
15BAMBrahmapur (3)  16:15 16:20+3116:20 16:25+335m31191.07327mECoRBerhampur, Odisha
16IPMIchchapuram  16:42 16:45+4316:43 16:47+441 2m--1215.58321mECoRIchchapuram, Andhra Pradesh
17SPTSompeta (4)X  17:01 17:00+3017:02+341 2m--1233.57148mECoRKanchili, Andhra Pradesh
18MMSMandasa Road  17:15 17:18+4517:16 17:20+501 2m11252.31238mECoRSrikakulam, Andhra Pradesh
19PSAPalasa (3)X  18:25+518:30+65m--1265.47431mECoRKasibugga, Andhra Pradesh
20PUNPundi  18:41 18:40+1318:42+141 2m--1277.66838mECoRSrikakulam, Andhra Pradesh
21NWPNaupada Junction  18:55 18:54+1318:56+161 2m--1291.18313mECoRNuapada . ph.no. 08945-249728, Andhra Pradesh
22KBMKotabommali  19:07 19:06+1519:08+171 2m--1304.98213mECoRSrikakulam, Andhra Pradesh
23TIUTilaru (4)  19:19 19:18+1819:20+211 2m--1318.65950mECoRSrikakulam District, Andhra Pradesh
24CHESrikakulam Road (4)X  19:40+2019:45+215m--1338.44834mECoRsrikakulam road ph .no. 08942-287222, Andhra Pradesh
25DUSIDusi  19:54 19:53+2019:55+221 2m--1344.86628mECoRSrikakulam, Andhra Pradesh
26PDUPonduru  20:04 20:03+2320:05+271 2m--1353.77539mECoRSrikakulam, Andhra Pradesh
27SGDMSigadam  20:14 20:13+2620:15+281 2m--1363.78067mECoRSrikakulam, Andhra Pradesh
28CPPChipurupalleX  20:26 20:25+2820:27+311 2m--1377.04999mECoRCheepurupalli, Andhra Pradesh
29GVIGarividi  20:36 20:35+2920:37+301 2m--1383.62892mECoRGarividi Railway Station Rd, Andhra Pradesh
30VZMVizianagaram Junction (5)  21:30+721:35+105m--1407.97063mECoRVizianagaram, Andhra Pradesh
31KTVKottavalasa Junction (5)O  22:06 22:05+1622:07+171 2m--1442.96858mECoRVizianagaram District, Andhra Pradesh
32SCMSimhachalam (2)XO  22:24 22:23+022:25+01 2m--1460.9927mECoRVisakhapatnam, Andhra Pradesh
33VSKPVisakhapatnam Junction (8)X23:20+223:40+520m21469.03511mECoRVishakhapatnam 530001, Andhra Pradesh
34DVDDuvvada (4)X  00:09 00:08+900:10+121 2m12485.45346mECoRVishakhapatnam District, Andhra Pradesh
35AKPAnakapalle (3)  00:28+1900:29+201m22501.45930mSCRAnakapalle ph.no . 08924-221698, Andhra Pradesh
36YLMElamanchili (2)  00:53+2200:54+231m--2525.110423mSCRVisakhapatnam District, Andhra Pradesh
37TUNITuni (2)  01:17+2901:18+311m12565.17124mSCRTuni ph.no. 08854-252172, Andhra Pradesh
38ANVAnnavaram (3)X  01:32+3101:33+321m12581.88327mSCREast Godavari District, Andhra Pradesh
39PAPPithapuram (2)X  01:51+3801:52+381m--2606.65622mSCREast Godavari District, Andhra Pradesh
40SLOSamalkot Junction (3)X  02:05+3602:06+371m32618.78418mSCRSamalkot, Andhra Pradesh
41APTAnaparti (3)X  02:25+4302:26+431m--2645.24521mSCREast Godavari District, Andhra Pradesh
42DWPDwarapudi (3)  02:31+4502:32+471m--2648.93120mSCREast Godavari District, Andhra Pradesh
43RJYRajahmundry (3)X03:10+3203:25+3515m12668.83623mSCRRajahmundry ph.no. 0883-2420541, Andhra Pradesh
44KVRKovvur (3)  03:38+4403:39+441m32676.74325mSCRWest Godavari, Andhra Pradesh
45NDDNidadavolu Junction (3)  03:59+4304:00+441m22691.05420mSCRNidadavolu jtn ph.no. 08813-210325, Andhra Pradesh
46TNKUTanuku (2)  04:19+4904:20+511m--2708.14512mSCR131, Andhra Pradesh
47ALAttili (1)  04:34+5004:35+501m12718.74614mSCRWest Godavari, Andhra Pradesh
48BVRTBhimavaram Town (2)X  05:01+4905:02+521m12738.5488mSCRBhimavaram, Andhra Pradesh
49AKVDAkividu (3)X  05:24+5805:25+1:021m--2756.2485mSCRCoast Andhra, Andhra Pradesh
50KKLRKaikaluru (2)X  05:46+1:0805:47+1:101m--2772.8348mSCRKaikalur, Andhra Pradesh
51GDVGudivada Junction (3)X  06:39+1:0206:40+1:031m--2802.13211mSCRKrishna District, Andhra Pradesh
52BZAVijayawada Junction (10)X  08:00+4408:20+4520m12845.35624mSCRVijayawada 520001, Andhra Pradesh
53DIGDuggirala (3)  08:43+1:0608:44+1:081m--2866.96516mSCRDuggirala, Andhra Pradesh
54TELTenali Junction (5)  08:53+1:0408:54+1:051m32876.66616mSCRTel: 08644-227834, Andhra Pradesh
55NDONidubrolu (3)X  09:14+1:1109:15+1:161m--2898.6659mSCRNidubrolu, Andhra Pradesh
56BPPBapatla (3)  09:34+1:0809:35+1:081m22919.27510mSCRBapatla, Andhra Pradesh
57CLXChirala (4)  09:47+1:1709:48+1:191m--2934.2528mSCRChirala, Andhra Pradesh
58VTMVetapalem (3)  09:57+1:2209:58+1:241m--2942.1688mSCRVetapalem, Andhra Pradesh
59CJMChinnaganjam (3)X  10:09+1:2510:10+1:261m--2954.5659mSCRChinna Ganjam, Andhra Pradesh
60ANBAmmanabrolu (3)  10:23+1:2710:24+1:271m--2968.74516mSCRAmmanabrolu, Andhra Pradesh
61OGLOngole (3)X  10:44+1:1010:45+1:111m32983.66212mSCROngole, Andhra Pradesh
62TNRTanguturu (3)  11:03+1:2311:04+1:231m--21002.27210mSCRTanguturu, Andhra Pradesh
63SKMSingarayakonda (2)X  11:12+1:1711:13+1:181m221011.86326mSCRSingarayakonda, Andhra Pradesh
64KVZKavali (4)XO  11:49+1:0911:50+1:091m221049.67021mSCRKavali, Andhra Pradesh
65BTTRBitragunta (2)  12:04-12:05-1m221066.07615mSCRBitragunta, Andhra Pradesh
66NLRNellore (4)X  12:32+3412:33+341m221100.32721mSCRNellore, Andhra Pradesh
67GDRGudur Junction (3)X  14:00+4214:05+405m121138.86819mSCRGudur, Andhra Pradesh
68VDDVendodu (2)X  14:22+5214:23+531m--21158.07655mSCRNellore, Andhra Pradesh
69VKIVenkatagiri (3)X  14:36+5814:37+1:011m221174.66477mSCRNellore District, Andhra Pradesh
70KHTSri Kalahasti (2)  15:01 15:00+5515:02+551 2m121199.03068mSCRChittoor District, Andhra Pradesh
71RURenigunta Junction (5)  15:48+5515:50+562m--21222.213113mSCRChittoor District, Andhra Pradesh
72TPTYTirupati Main (5)  16:35+18-421232.1-150mSCRChittoor Distt, Andhra Pradesh
Scroll to Top
Scroll to Bottom